Time;durP1;ratioP1;P1;durP2;ratioP2;P2;SDS_P1;SDS_P2;PMS_P1;PMS_P2;Temp;Humidity;BMP_temperature;BMP_pressure;BME280_temperature;BME280_humidity;BME280_pressure;Samples;Min_cycle;Max_cycle;Signal;HPM_P1;HPM_P2
2022/12/01 00:00:54;;;;;;;4.97;4.45;;;;;;;;;;5040812;28;20289;-84
2022/12/01 00:03:23;;;;;;;7.15;6.35;;;;;;;;;;5039935;28;20248;-84
2022/12/01 00:05:59;;;;;;;6.65;5.63;;;;;;;;;;5039736;28;20198;-85
2022/12/01 00:08:28;;;;;;;7.82;6.60;;;;;;;;;;5040187;28;20225;-84
2022/12/01 00:10:55;;;;;;;5.35;4.38;;;;;;;;;;5040064;28;20316;-84
2022/12/01 00:13:22;;;;;;;6.50;5.22;;;;;;;;;;5039288;28;20685;-84
2022/12/01 00:15:50;;;;;;;5.32;4.82;;;;;;;;;;5039697;28;20226;-85
2022/12/01 00:18:17;;;;;;;7.18;6.20;;;;;;;;;;5037650;28;20309;-84
2022/12/01 00:20:47;;;;;;;6.40;5.03;;;;;;;;;;5019023;28;20226;-84
2022/12/01 00:23:15;;;;;;;12.70;9.20;;;;;;;;;;5019106;28;20238;-84
2022/12/01 00:25:44;;;;;;;13.52;10.52;;;;;;;;;;5020236;28;20285;-84
2022/12/01 00:28:11;;;;;;;14.65;10.05;;;;;;;;;;5018540;28;20597;-83
2022/12/01 00:30:39;;;;;;;7.88;6.60;;;;;;;;;;5017955;28;20755;-84
2022/12/01 00:33:06;;;;;;;6.75;6.05;;;;;;;;;;5018275;28;20301;-84
2022/12/01 00:35:33;;;;;;;7.40;6.22;;;;;;;;;;5018863;28;20215;-84
2022/12/01 00:38:01;;;;;;;11.88;9.82;;;;;;;;;;5018099;28;20703;-85
2022/12/01 00:40:28;;;;;;;12.88;9.63;;;;;;;;;;5031421;28;20288;-85
2022/12/01 00:42:57;;;;;;;12.32;10.10;;;;;;;;;;5058405;28;20226;-84
2022/12/01 00:45:25;;;;;;;13.35;10.82;;;;;;;;;;5058556;28;20288;-85
2022/12/01 00:47:52;;;;;;;18.10;12.00;;;;;;;;;;5058314;28;20225;-84
2022/12/01 00:50:20;;;;;;;14.50;11.02;;;;;;;;;;5040753;28;20264;-84
2022/12/01 00:52:47;;;;;;;14.93;11.75;;;;;;;;;;5038282;28;20283;-84
2022/12/01 00:55:15;;;;;;;20.30;12.95;;;;;;;;;;5038416;28;20202;-83
2022/12/01 00:57:42;;;;;;;14.30;10.95;;;;;;;;;;5038636;28;20249;-84
2022/12/01 01:00:14;;;;;;;11.82;9.35;;;;;;;;;;5038492;28;20249;-84
2022/12/01 01:02:41;;;;;;;17.55;12.63;;;;;;;;;;5038429;28;20198;-84
2022/12/01 01:05:10;;;;;;;14.18;10.85;;;;;;;;;;5038388;28;20609;-84
2022/12/01 01:07:37;;;;;;;16.15;11.75;;;;;;;;;;5038846;28;20222;-84
2022/12/01 01:10:06;;;;;;;19.80;13.77;;;;;;;;;;5038007;28;20289;-84
2022/12/01 01:12:33;;;;;;;17.58;13.57;;;;;;;;;;5039208;28;20238;-84
2022/12/01 01:15:01;;;;;;;12.07;10.77;;;;;;;;;;5037986;28;20262;-84
2022/12/01 01:17:30;;;;;;;11.18;8.63;;;;;;;;;;5038200;28;20289;-83
2022/12/01 01:19:57;;;;;;;13.07;10.20;;;;;;;;;;5023288;28;20298;-83
2022/12/01 01:22:25;;;;;;;10.35;8.88;;;;;;;;;;5018025;28;20268;-83
2022/12/01 01:24:52;;;;;;;14.55;11.98;;;;;;;;;;5018442;28;20312;-85
2022/12/01 01:27:19;;;;;;;12.05;9.02;;;;;;;;;;5018141;28;20657;-84
2022/12/01 01:29:47;;;;;;;19.10;15.02;;;;;;;;;;5016943;28;20226;-84
2022/12/01 01:32:14;;;;;;;18.67;14.65;;;;;;;;;;5017413;28;20223;-85
2022/12/01 01:34:43;;;;;;;17.67;12.82;;;;;;;;;;5017412;28;20734;-84
2022/12/01 01:37:12;;;;;;;12.60;10.10;;;;;;;;;;5017678;28;20679;-84
2022/12/01 01:39:39;;;;;;;19.40;15.00;;;;;;;;;;5018234;28;20215;-82
2022/12/01 01:42:09;;;;;;;16.83;13.07;;;;;;;;;;5017489;28;20227;-84
2022/12/01 01:44:52;;;;;;;17.55;11.93;;;;;;;;;;5018040;28;20316;-84
2022/12/01 01:47:25;;;;;;;13.18;10.55;;;;;;;;;;5017876;28;20227;-84
2022/12/01 01:49:57;;;;;;;11.40;9.65;;;;;;;;;;5018386;28;20629;-84
2022/12/01 01:52:25;;;;;;;11.30;9.05;;;;;;;;;;5017811;28;20684;-84
2022/12/01 01:54:54;;;;;;;13.90;11.23;;;;;;;;;;5018121;28;20257;-83
2022/12/01 01:57:26;;;;;;;19.33;14.02;;;;;;;;;;5017583;28;20321;-84
2022/12/01 01:59:58;;;;;;;21.45;14.10;;;;;;;;;;5018269;28;20282;-84
2022/12/01 02:02:25;;;;;;;25.58;16.10;;;;;;;;;;5017758;28;20270;-82
2022/12/01 02:05:00;;;;;;;21.27;15.50;;;;;;;;;;5017563;28;20291;-82
2022/12/01 02:07:28;;;;;;;19.48;14.48;;;;;;;;;;5018127;28;20721;-82
2022/12/01 02:09:56;;;;;;;17.42;12.85;;;;;;;;;;5016657;28;20257;-82
2022/12/01 02:12:51;;;;;;;19.77;14.90;;;;;;;;;;5016898;28;20801;-84
2022/12/01 02:15:26;;;;;;;25.52;16.30;;;;;;;;;;5017340;28;20223;-83
2022/12/01 02:18:06;;;;;;;19.42;14.60;;;;;;;;;;5017427;28;20711;-84
2022/12/01 02:21:23;;;;;;;18.45;13.48;;;;;;;;;;5017448;28;20286;-84
2022/12/01 02:24:45;;;;;;;26.50;17.23;;;;;;;;;;5016790;28;20219;-84
2022/12/01 02:27:26;;;;;;;17.45;13.30;;;;;;;;;;4936449;29;20296;-84
2022/12/01 02:30:06;;;;;;;18.75;13.93;;;;;;;;;;5011787;28;20239;-83
2022/12/01 02:32:49;;;;;;;21.23;16.35;;;;;;;;;;5017733;28;20217;-82
2022/12/01 02:35:24;;;;;;;24.23;15.10;;;;;;;;;;5017321;28;20263;-83
2022/12/01 02:38:03;;;;;;;19.98;14.98;;;;;;;;;;5017100;28;20257;-83
2022/12/01 02:40:33;;;;;;;19.50;13.90;;;;;;;;;;5017270;28;20207;-84
2022/12/01 02:43:05;;;;;;;20.73;15.60;;;;;;;;;;5017422;28;20271;-82
2022/12/01 02:45:41;;;;;;;22.35;15.13;;;;;;;;;;5017342;28;20264;-84
2022/12/01 02:48:14;;;;;;;18.13;12.90;;;;;;;;;;5017093;28;20233;-82
2022/12/01 02:50:42;;;;;;;16.55;12.77;;;;;;;;;;5017549;28;20183;-84
2022/12/01 02:53:13;;;;;;;15.45;12.05;;;;;;;;;;5017767;28;20257;-84
2022/12/01 02:55:48;;;;;;;17.50;12.63;;;;;;;;;;5016505;28;20222;-83
2022/12/01 02:58:16;;;;;;;15.73;10.43;;;;;;;;;;5017304;28;20789;-84
2022/12/01 03:00:56;;;;;;;13.82;10.80;;;;;;;;;;5016499;28;20235;-82
2022/12/01 03:03:39;;;;;;;14.57;10.60;;;;;;;;;;5017455;28;20275;-83
2022/12/01 03:06:14;;;;;;;12.38;9.68;;;;;;;;;;5016860;28;20243;-84
2022/12/01 03:08:50;;;;;;;16.75;13.43;;;;;;;;;;5016429;28;20313;-84
2022/12/01 03:11:26;;;;;;;14.35;9.93;;;;;;;;;;5015908;28;20218;-84
2022/12/01 03:14:06;;;;;;;13.13;10.73;;;;;;;;;;5016215;28;20187;-84
2022/12/01 03:16:41;;;;;;;14.43;10.45;;;;;;;;;;5015750;28;20183;-83
2022/12/01 03:19:13;;;;;;;15.52;10.70;;;;;;;;;;5023834;28;20595;-84
2022/12/01 03:21:44;;;;;;;13.45;10.27;;;;;;;;;;5034935;28;20213;-83
2022/12/01 03:24:17;;;;;;;15.35;11.48;;;;;;;;;;5035534;28;20257;-83
2022/12/01 03:26:48;;;;;;;16.52;11.50;;;;;;;;;;5035524;28;20274;-83
2022/12/01 03:29:19;;;;;;;21.10;14.73;;;;;;;;;;5035753;28;20253;-83
2022/12/01 03:31:51;;;;;;;28.83;21.35;;;;;;;;;;5035347;28;20293;-83
2022/12/01 03:34:27;;;;;;;24.60;18.08;;;;;;;;;;5035625;28;20253;-83
2022/12/01 03:36:58;;;;;;;32.70;20.73;;;;;;;;;;5035354;28;20268;-83
2022/12/01 03:39:31;;;;;;;24.30;15.68;;;;;;;;;;5035776;28;20302;-84
2022/12/01 03:42:02;;;;;;;24.35;16.90;;;;;;;;;;5035592;28;20290;-84
2022/12/01 03:44:33;;;;;;;20.55;16.33;;;;;;;;;;5035620;28;20187;-84
2022/12/01 03:47:04;;;;;;;35.08;21.65;;;;;;;;;;5035929;28;20218;-84
2022/12/01 03:49:33;;;;;;;32.53;21.17;;;;;;;;;;5036009;28;20210;-83
2022/12/01 03:52:09;;;;;;;29.00;19.75;;;;;;;;;;5035823;28;20249;-83
2022/12/01 03:54:49;;;;;;;31.35;20.77;;;;;;;;;;5035220;28;20225;-83
2022/12/01 03:57:22;;;;;;;33.92;22.48;;;;;;;;;;5035124;28;20722;-83
2022/12/01 03:59:49;;;;;;;30.90;21.15;;;;;;;;;;5034948;28;20695;-84
2022/12/01 04:02:17;;;;;;;23.30;17.23;;;;;;;;;;5035293;28;20635;-84
2022/12/01 04:04:46;;;;;;;19.45;14.27;;;;;;;;;;5035260;28;20715;-84
2022/12/01 04:07:13;;;;;;;20.58;14.93;;;;;;;;;;5035423;28;20241;-84
2022/12/01 04:09:41;;;;;;;21.02;14.90;;;;;;;;;;5034983;28;20256;-84
2022/12/01 04:14:56;;;;;;;18.85;14.60;;;;;;;;;;5035477;28;20286;-83
2022/12/01 04:17:23;;;;;;;19.42;15.85;;;;;;;;;;5035293;28;20591;-84
2022/12/01 04:19:52;;;;;;;15.32;12.52;;;;;;;;;;5034953;28;20305;-84
2022/12/01 04:22:20;;;;;;;21.38;15.95;;;;;;;;;;5035321;28;20247;-85
2022/12/01 04:24:47;;;;;;;21.48;16.33;;;;;;;;;;5035443;28;20238;-85
2022/12/01 04:27:15;;;;;;;21.00;14.75;;;;;;;;;;5034645;28;20237;-84
2022/12/01 04:29:43;;;;;;;23.85;16.60;;;;;;;;;;5034729;28;20260;-84
2022/12/01 04:32:10;;;;;;;15.10;11.98;;;;;;;;;;5035849;28;20241;-84
2022/12/01 04:34:38;;;;;;;16.60;13.38;;;;;;;;;;5037674;28;20322;-84
2022/12/01 04:37:08;;;;;;;15.73;12.73;;;;;;;;;;5036950;28;20234;-82
2022/12/01 04:39:37;;;;;;;20.63;16.58;;;;;;;;;;5036362;28;20206;-84
2022/12/01 04:42:05;;;;;;;14.95;12.27;;;;;;;;;;5036438;28;20206;-84
2022/12/01 04:44:32;;;;;;;14.27;11.93;;;;;;;;;;5036012;28;20194;-84
2022/12/01 04:47:00;;;;;;;13.40;11.05;;;;;;;;;;5036964;28;20620;-85
2022/12/01 04:49:27;;;;;;;14.63;11.50;;;;;;;;;;5036652;28;20282;-82
2022/12/01 04:51:55;;;;;;;15.43;11.90;;;;;;;;;;5036104;28;20252;-86
2022/12/01 04:54:24;;;;;;;18.83;13.25;;;;;;;;;;5036278;28;20228;-83
2022/12/01 04:56:52;;;;;;;19.10;15.18;;;;;;;;;;5035949;28;20252;-84
2022/12/01 04:59:19;;;;;;;17.20;13.20;;;;;;;;;;5036030;28;20304;-82
2022/12/01 05:01:47;;;;;;;17.45;13.65;;;;;;;;;;5036619;28;20202;-83
2022/12/01 05:04:15;;;;;;;21.92;16.08;;;;;;;;;;5036697;28;20206;-83
2022/12/01 05:06:43;;;;;;;18.85;14.68;;;;;;;;;;5036391;28;20226;-83
2022/12/01 05:09:14;;;;;;;15.18;12.75;;;;;;;;;;5035865;28;20305;-83
2022/12/01 05:11:43;;;;;;;14.68;11.27;;;;;;;;;;5036310;28;20313;-83
2022/12/01 05:14:10;;;;;;;17.95;14.25;;;;;;;;;;5036275;28;20275;-83
2022/12/01 05:16:38;;;;;;;13.77;11.52;;;;;;;;;;5036371;28;20658;-83
2022/12/01 05:21:51;;;;;;;20.95;16.83;;;;;;;;;;5036360;28;20190;-85
2022/12/01 05:24:20;;;;;;;17.30;13.77;;;;;;;;;;5036191;28;20230;-82
2022/12/01 05:26:49;;;;;;;13.93;11.00;;;;;;;;;;5036112;28;20471;-85
2022/12/01 05:29:17;;;;;;;16.65;13.20;;;;;;;;;;5036256;28;20762;-83
2022/12/01 05:31:46;;;;;;;16.70;13.95;;;;;;;;;;5035849;28;20286;-83
2022/12/01 05:34:13;;;;;;;19.40;14.63;;;;;;;;;;5036122;28;20222;-83
2022/12/01 05:36:41;;;;;;;17.90;13.27;;;;;;;;;;5035687;28;20233;-83
2022/12/01 05:39:09;;;;;;;17.30;14.38;;;;;;;;;;5036177;28;20230;-82
2022/12/01 05:41:36;;;;;;;16.35;12.60;;;;;;;;;;5035823;28;20678;-84
2022/12/01 05:44:05;;;;;;;14.63;12.88;;;;;;;;;;5034568;28;20285;-83
2022/12/01 05:46:33;;;;;;;14.23;11.48;;;;;;;;;;5037066;28;20289;-83
2022/12/01 05:49:00;;;;;;;12.75;10.80;;;;;;;;;;5035488;28;20317;-84
2022/12/01 05:51:28;;;;;;;13.85;12.25;;;;;;;;;;5035806;28;20289;-85
2022/12/01 05:53:55;;;;;;;14.85;12.25;;;;;;;;;;5035434;28;20365;-85
2022/12/01 05:56:23;;;;;;;14.55;11.02;;;;;;;;;;5034933;28;20297;-84
2022/12/01 05:58:50;;;;;;;14.38;10.88;;;;;;;;;;5034997;28;20313;-83
2022/12/01 06:01:19;;;;;;;15.10;11.43;;;;;;;;;;5035751;28;20567;-84
2022/12/01 06:03:47;;;;;;;16.63;13.57;;;;;;;;;;5035394;28;20230;-85
2022/12/01 06:06:14;;;;;;;22.05;16.17;;;;;;;;;;5035444;28;20300;-85
2022/12/01 06:08:42;;;;;;;15.13;12.60;;;;;;;;;;5034671;28;20314;-86
2022/12/01 06:11:10;;;;;;;14.82;11.20;;;;;;;;;;5035117;28;20202;-83
2022/12/01 06:13:37;;;;;;;14.57;11.93;;;;;;;;;;5035152;28;20317;-82
2022/12/01 06:16:07;;;;;;;12.55;10.00;;;;;;;;;;5034868;28;20233;-84
2022/12/01 06:18:38;;;;;;;12.93;10.02;;;;;;;;;;5035064;28;20664;-82
2022/12/01 06:21:06;;;;;;;11.98;9.48;;;;;;;;;;5035167;28;20620;-83
2022/12/01 06:23:34;;;;;;;12.13;9.68;;;;;;;;;;5035124;28;20285;-83
2022/12/01 06:26:02;;;;;;;14.23;12.05;;;;;;;;;;5035176;28;20208;-82
2022/12/01 06:28:29;;;;;;;12.95;10.82;;;;;;;;;;5034854;28;20260;-83
2022/12/01 06:30:57;;;;;;;12.45;10.75;;;;;;;;;;5034645;28;20289;-84
2022/12/01 06:33:24;;;;;;;13.75;11.35;;;;;;;;;;5034661;28;20257;-81
2022/12/01 06:35:59;;;;;;;10.88;8.88;;;;;;;;;;5035059;28;20245;-82
2022/12/01 06:38:29;;;;;;;16.13;13.52;;;;;;;;;;5034636;28;20293;-82
2022/12/01 06:40:57;;;;;;;17.35;13.70;;;;;;;;;;5034846;28;20260;-83
2022/12/01 06:43:24;;;;;;;14.85;12.02;;;;;;;;;;5034757;28;20739;-82
2022/12/01 06:45:52;;;;;;;13.70;12.32;;;;;;;;;;5034905;28;20209;-83
2022/12/01 06:48:19;;;;;;;19.23;15.13;;;;;;;;;;5034300;28;20313;-83
2022/12/01 06:50:47;;;;;;;16.17;14.07;;;;;;;;;;5052344;28;20284;-82
2022/12/01 06:53:16;;;;;;;21.75;15.73;;;;;;;;;;5054298;28;20229;-84
2022/12/01 06:55:43;;;;;;;16.55;13.32;;;;;;;;;;5052371;28;20204;-83
2022/12/01 06:58:11;;;;;;;15.57;12.15;;;;;;;;;;5034007;28;20351;-83
2022/12/01 07:00:38;;;;;;;12.38;10.98;;;;;;;;;;5034406;28;20233;-83
2022/12/01 07:03:06;;;;;;;14.45;11.95;;;;;;;;;;5034190;28;20294;-85
2022/12/01 07:05:33;;;;;;;14.05;10.48;;;;;;;;;;5033420;28;20289;-84
2022/12/01 07:08:01;;;;;;;15.25;11.57;;;;;;;;;;5033906;28;20309;-83
2022/12/01 07:10:31;;;;;;;14.50;12.55;;;;;;;;;;5032972;28;20226;-84
2022/12/01 07:12:58;;;;;;;14.50;12.00;;;;;;;;;;5033796;28;20211;-84
2022/12/01 07:15:27;;;;;;;15.52;12.73;;;;;;;;;;5033763;28;20222;-82
2022/12/01 07:17:55;;;;;;;19.95;15.38;;;;;;;;;;5033330;28;20219;-83
2022/12/01 07:20:22;;;;;;;16.77;13.55;;;;;;;;;;5032991;28;20297;-84
2022/12/01 07:22:49;;;;;;;26.20;18.30;;;;;;;;;;5034018;28;20301;-83
2022/12/01 07:25:17;;;;;;;20.33;15.98;;;;;;;;;;5033705;28;20340;-82
2022/12/01 07:27:46;;;;;;;16.15;12.65;;;;;;;;;;5034347;28;20309;-84
2022/12/01 07:30:14;;;;;;;12.55;10.77;;;;;;;;;;5034769;28;20222;-83
2022/12/01 07:32:41;;;;;;;14.05;12.52;;;;;;;;;;5034225;28;20242;-82
2022/12/01 07:35:10;;;;;;;22.50;16.75;;;;;;;;;;5033986;28;20268;-82
2022/12/01 07:37:37;;;;;;;19.30;13.63;;;;;;;;;;5032739;28;20582;-81
2022/12/01 07:40:06;;;;;;;15.75;13.27;;;;;;;;;;5033702;28;20277;-83
2022/12/01 07:42:34;;;;;;;14.10;11.15;;;;;;;;;;5033833;28;20281;-83
2022/12/01 07:45:03;;;;;;;16.27;14.32;;;;;;;;;;5033091;28;20713;-82
2022/12/01 07:47:30;;;;;;;21.42;15.77;;;;;;;;;;5033067;28;20218;-84
2022/12/01 07:49:58;;;;;;;14.70;12.07;;;;;;;;;;5032524;28;20288;-83
2022/12/01 07:52:25;;;;;;;16.73;13.90;;;;;;;;;;5033146;28;20289;-84
2022/12/01 07:54:52;;;;;;;15.18;11.52;;;;;;;;;;5032538;28;20226;-83
2022/12/01 07:57:20;;;;;;;14.55;11.73;;;;;;;;;;5033173;28;20328;-83
2022/12/01 07:59:47;;;;;;;13.73;11.35;;;;;;;;;;5033540;28;20310;-85
2022/12/01 08:02:16;;;;;;;17.27;13.55;;;;;;;;;;5033147;28;20293;-84
2022/12/01 08:04:44;;;;;;;15.48;11.07;;;;;;;;;;5033298;28;20298;-87
2022/12/01 08:07:11;;;;;;;10.40;9.35;;;;;;;;;;5035443;28;20240;-88
2022/12/01 08:09:39;;;;;;;12.13;10.93;;;;;;;;;;5036837;28;20288;-84
2022/12/01 08:12:07;;;;;;;12.50;10.18;;;;;;;;;;5037017;28;20293;-84
2022/12/01 08:14:35;;;;;;;12.00;9.90;;;;;;;;;;5037153;28;20621;-85
2022/12/01 08:17:02;;;;;;;13.93;11.25;;;;;;;;;;5037416;28;20632;-85
2022/12/01 08:19:31;;;;;;;9.82;8.70;;;;;;;;;;5037584;28;20289;-83
2022/12/01 08:21:58;;;;;;;15.10;13.27;;;;;;;;;;5036759;28;20273;-83
2022/12/01 08:24:26;;;;;;;17.63;13.10;;;;;;;;;;5037377;28;20237;-82
2022/12/01 08:26:53;;;;;;;15.25;12.15;;;;;;;;;;5037483;28;20285;-85
2022/12/01 08:29:21;;;;;;;18.27;15.43;;;;;;;;;;5037153;28;20680;-83
2022/12/01 08:31:48;;;;;;;16.52;13.40;;;;;;;;;;5036513;28;20289;-85
2022/12/01 08:34:16;;;;;;;13.23;11.13;;;;;;;;;;5036535;28;20775;-85
2022/12/01 08:36:45;;;;;;;13.73;10.98;;;;;;;;;;5036553;28;20265;-85
2022/12/01 08:39:12;;;;;;;13.77;11.45;;;;;;;;;;5036763;28;20222;-86
2022/12/01 08:41:40;;;;;;;9.98;8.98;;;;;;;;;;5036777;28;20198;-86
2022/12/01 08:44:09;;;;;;;11.32;10.00;;;;;;;;;;5036074;28;20285;-85
2022/12/01 08:46:37;;;;;;;14.25;11.43;;;;;;;;;;5035860;28;20207;-87
2022/12/01 08:49:06;;;;;;;13.15;11.73;;;;;;;;;;5035882;28;20234;-87
2022/12/01 08:51:35;;;;;;;13.80;10.77;;;;;;;;;;5035614;28;20217;-86
2022/12/01 08:54:04;;;;;;;10.20;9.07;;;;;;;;;;5035871;28;20213;-87
2022/12/01 08:56:35;;;;;;;13.10;9.88;;;;;;;;;;5035653;28;20282;-86
2022/12/01 08:59:03;;;;;;;10.75;9.05;;;;;;;;;;5035543;28;20304;-86
2022/12/01 09:01:31;;;;;;;11.73;10.10;;;;;;;;;;5035277;28;20244;-86
2022/12/01 09:04:07;;;;;;;11.68;10.45;;;;;;;;;;5035478;28;20661;-86
2022/12/01 09:06:39;;;;;;;14.10;10.45;;;;;;;;;;5035338;28;20277;-86
2022/12/01 09:09:09;;;;;;;12.68;11.38;;;;;;;;;;5035445;28;20229;-87
2022/12/01 09:11:37;;;;;;;14.13;11.52;;;;;;;;;;5035226;28;20261;-87
2022/12/01 09:14:04;;;;;;;15.00;11.52;;;;;;;;;;5035254;28;20719;-85
2022/12/01 09:16:32;;;;;;;10.93;9.70;;;;;;;;;;5035070;28;20218;-86
2022/12/01 09:18:59;;;;;;;12.15;9.45;;;;;;;;;;5033761;28;20315;-87
2022/12/01 09:21:30;;;;;;;13.27;10.75;;;;;;;;;;5035028;28;20242;-87
2022/12/01 09:23:57;;;;;;;12.82;10.07;;;;;;;;;;5035014;28;20198;-87
2022/12/01 09:26:27;;;;;;;15.23;11.52;;;;;;;;;;5034894;28;20205;-86
2022/12/01 09:28:57;;;;;;;19.98;15.10;;;;;;;;;;5034340;28;20303;-86
2022/12/01 09:31:25;;;;;;;17.98;14.60;;;;;;;;;;5034869;28;20269;-87
2022/12/01 09:33:56;;;;;;;15.68;13.27;;;;;;;;;;5034562;28;20353;-86
2022/12/01 09:36:24;;;;;;;14.38;11.25;;;;;;;;;;5034779;28;20221;-86
2022/12/01 09:38:51;;;;;;;16.00;12.10;;;;;;;;;;5034875;28;20257;-86
2022/12/01 09:41:23;;;;;;;15.68;12.40;;;;;;;;;;5034747;28;20202;-87
2022/12/01 09:43:59;;;;;;;15.50;13.48;;;;;;;;;;5034821;28;20274;-87
2022/12/01 09:46:32;;;;;;;18.55;14.20;;;;;;;;;;5034479;28;20277;-87
2022/12/01 09:49:02;;;;;;;15.75;11.63;;;;;;;;;;5034691;28;20345;-86
2022/12/01 09:51:33;;;;;;;14.93;12.45;;;;;;;;;;5034491;28;20707;-86
2022/12/01 09:54:02;;;;;;;17.35;12.95;;;;;;;;;;5034508;28;20193;-87
2022/12/01 09:56:32;;;;;;;13.20;11.18;;;;;;;;;;5033965;28;20230;-85
2022/12/01 09:59:04;;;;;;;11.50;10.30;;;;;;;;;;5034363;28;20721;-87
2022/12/01 10:01:36;;;;;;;18.15;13.00;;;;;;;;;;5034501;28;20268;-88
2022/12/01 10:04:10;;;;;;;14.57;12.10;;;;;;;;;;5034518;28;20226;-86
2022/12/01 10:06:42;;;;;;;12.15;9.88;;;;;;;;;;5034243;28;20189;-86
2022/12/01 10:09:21;;;;;;;16.48;14.07;;;;;;;;;;5034396;28;20713;-86
2022/12/01 10:11:49;;;;;;;10.93;9.52;;;;;;;;;;5034211;28;20259;-87
2022/12/01 10:14:20;;;;;;;12.73;10.40;;;;;;;;;;5034139;28;20203;-87
2022/12/01 10:16:58;;;;;;;15.98;13.65;;;;;;;;;;5034006;28;20229;-85
2022/12/01 10:19:31;;;;;;;13.30;10.45;;;;;;;;;;5034139;28;20331;-87
2022/12/01 10:22:16;;;;;;;11.18;9.55;;;;;;;;;;5033627;28;20186;-86
2022/12/01 10:24:55;;;;;;;13.50;9.20;;;;;;;;;;5034281;28;20282;-86
2022/12/01 10:27:40;;;;;;;12.93;10.20;;;;;;;;;;5034017;28;20627;-87
2022/12/01 10:30:15;;;;;;;9.90;7.82;;;;;;;;;;5033719;28;20232;-87
2022/12/01 10:32:51;;;;;;;8.55;7.03;;;;;;;;;;5034072;28;20186;-85
2022/12/01 10:35:22;;;;;;;9.80;8.80;;;;;;;;;;5033852;28;20182;-86
2022/12/01 10:37:54;;;;;;;8.80;7.85;;;;;;;;;;5034684;28;20691;-85
2022/12/01 10:40:22;;;;;;;7.50;6.53;;;;;;;;;;5035369;28;20225;-86
2022/12/01 10:42:51;;;;;;;10.10;7.65;;;;;;;;;;5035458;28;20198;-86
2022/12/01 10:45:24;;;;;;;6.50;5.85;;;;;;;;;;5035923;28;20230;-85
2022/12/01 10:48:15;;;;;;;8.57;7.55;;;;;;;;;;5035572;28;20703;-86
2022/12/01 10:50:44;;;;;;;8.13;6.95;;;;;;;;;;5035193;28;20203;-85
2022/12/01 10:53:29;;;;;;;10.48;8.90;;;;;;;;;;5035779;28;20287;-86
2022/12/01 10:56:05;;;;;;;10.82;8.68;;;;;;;;;;5027180;28;20268;-86
2022/12/01 10:58:33;;;;;;;7.93;6.30;;;;;;;;;;5035253;28;20232;-87
2022/12/01 11:01:05;;;;;;;6.97;5.93;;;;;;;;;;5035790;28;20208;-86
2022/12/01 11:03:36;;;;;;;6.78;6.00;;;;;;;;;;5034945;28;20622;-86
2022/12/01 11:06:06;;;;;;;8.98;6.57;;;;;;;;;;5034989;28;20244;-86
2022/12/01 11:08:40;;;;;;;9.27;7.18;;;;;;;;;;5034381;28;20437;-86
2022/12/01 11:11:26;;;;;;;8.73;6.72;;;;;;;;;;5033585;28;20237;-86
2022/12/01 11:13:55;;;;;;;10.13;9.13;;;;;;;;;;5033485;28;20187;-87
2022/12/01 11:16:40;;;;;;;12.60;9.73;;;;;;;;;;5034038;28;20249;-87
2022/12/01 11:19:18;;;;;;;11.40;9.27;;;;;;;;;;5025786;28;20769;-87
2022/12/01 11:21:48;;;;;;;12.25;8.95;;;;;;;;;;5013853;28;20246;-86
2022/12/01 11:24:42;;;;;;;9.45;8.15;;;;;;;;;;5014270;28;20294;-86
2022/12/01 11:27:18;;;;;;;13.82;9.90;;;;;;;;;;5013729;28;20230;-86
2022/12/01 11:29:48;;;;;;;12.55;9.35;;;;;;;;;;5014436;28;20235;-86
2022/12/01 11:32:22;;;;;;;13.25;9.98;;;;;;;;;;5013294;28;20300;-87
2022/12/01 11:34:53;;;;;;;9.95;8.90;;;;;;;;;;5014240;28;20220;-86
2022/12/01 11:37:24;;;;;;;12.18;10.57;;;;;;;;;;5014618;28;20269;-86
2022/12/01 11:39:52;;;;;;;11.98;9.65;;;;;;;;;;5013880;28;20193;-84
2022/12/01 11:42:26;;;;;;;13.63;9.93;;;;;;;;;;5013373;28;20210;-85
2022/12/01 11:44:56;;;;;;;14.57;10.50;;;;;;;;;;5014113;28;20386;-84
2022/12/01 11:47:27;;;;;;;10.07;7.95;;;;;;;;;;5014647;28;20314;-84
2022/12/01 11:49:57;;;;;;;9.00;7.93;;;;;;;;;;5028044;28;20294;-85
2022/12/01 11:52:29;;;;;;;15.57;11.68;;;;;;;;;;5033528;28;20229;-85
2022/12/01 11:55:03;;;;;;;10.35;7.90;;;;;;;;;;5034204;28;20252;-84
2022/12/01 11:57:31;;;;;;;11.27;9.00;;;;;;;;;;5033328;28;20236;-83
2022/12/01 11:59:59;;;;;;;13.93;10.18;;;;;;;;;;5034070;28;20236;-84
2022/12/01 12:02:39;;;;;;;41.95;25.40;;;;;;;;;;5033288;28;20656;-84
2022/12/01 12:05:35;;;;;;;20.33;12.38;;;;;;;;;;5034011;28;20563;-86
2022/12/01 12:08:11;;;;;;;15.80;10.82;;;;;;;;;;5033368;28;20305;-84
2022/12/01 12:10:49;;;;;;;18.88;13.30;;;;;;;;;;5033384;28;20210;-85
2022/12/01 12:13:41;;;;;;;18.85;13.25;;;;;;;;;;5033264;28;20265;-87
2022/12/01 12:16:16;;;;;;;21.65;15.45;;;;;;;;;;5033272;28;20278;-84
2022/12/01 12:18:58;;;;;;;15.52;11.45;;;;;;;;;;5029075;28;20318;-85
2022/12/01 12:21:37;;;;;;;14.15;10.88;;;;;;;;;;5013687;28;20710;-84
2022/12/01 12:24:28;;;;;;;32.03;18.80;;;;;;;;;;5013126;28;20302;-86
2022/12/01 12:27:04;;;;;;;30.10;23.88;;;;;;;;;;5012957;28;20270;-85
2022/12/01 12:29:48;;;;;;;24.30;19.67;;;;;;;;;;5013919;28;20661;-85
2022/12/01 12:32:36;;;;;;;16.85;14.02;;;;;;;;;;5013792;28;20286;-83
2022/12/01 12:35:15;;;;;;;18.55;13.68;;;;;;;;;;5013574;28;20651;-83
2022/12/01 12:37:51;;;;;;;13.93;12.13;;;;;;;;;;5013818;28;20241;-83
2022/12/01 12:40:36;;;;;;;14.68;11.18;;;;;;;;;;5013582;28;20229;-84
2022/12/01 12:43:22;;;;;;;14.25;10.43;;;;;;;;;;5013667;28;20630;-84
2022/12/01 12:46:02;;;;;;;14.98;11.07;;;;;;;;;;5014095;28;20187;-85
2022/12/01 12:49:08;;;;;;;11.77;10.05;;;;;;;;;;5015435;28;20226;-83
2022/12/01 12:51:40;;;;;;;12.82;10.38;;;;;;;;;;5029733;28;20341;-86
2022/12/01 12:54:19;;;;;;;17.17;12.15;;;;;;;;;;5036055;28;20186;-85
2022/12/01 12:56:49;;;;;;;15.00;11.75;;;;;;;;;;5036341;28;20745;-85
2022/12/01 12:59:21;;;;;;;16.48;11.77;;;;;;;;;;5035887;28;20226;-84
2022/12/01 13:01:56;;;;;;;12.90;9.40;;;;;;;;;;5036738;28;20186;-86
2022/12/01 13:04:32;;;;;;;16.58;11.90;;;;;;;;;;5036492;28;20289;-85
2022/12/01 13:07:03;;;;;;;20.10;13.98;;;;;;;;;;5036509;28;20187;-87
2022/12/01 13:09:36;;;;;;;14.50;11.45;;;;;;;;;;5036414;28;20633;-85
2022/12/01 13:12:09;;;;;;;14.30;11.23;;;;;;;;;;5036423;28;20290;-85
2022/12/01 13:14:39;;;;;;;13.45;10.80;;;;;;;;;;5036628;28;20540;-82
2022/12/01 13:17:14;;;;;;;13.32;10.82;;;;;;;;;;5035978;28;20222;-85
2022/12/01 13:19:43;;;;;;;16.45;11.75;;;;;;;;;;5035748;28;20218;-87
2022/12/01 13:22:14;;;;;;;14.02;11.25;;;;;;;;;;5035445;28;20244;-86
2022/12/01 13:24:41;;;;;;;14.55;10.18;;;;;;;;;;5035641;28;20266;-85
2022/12/01 13:27:17;;;;;;;13.70;9.93;;;;;;;;;;5035350;28;20293;-84
2022/12/01 13:29:48;;;;;;;13.93;10.70;;;;;;;;;;5035891;28;20187;-87
2022/12/01 13:32:36;;;;;;;12.88;9.80;;;;;;;;;;5036799;28;20282;-85
2022/12/01 13:35:07;;;;;;;17.83;12.88;;;;;;;;;;5035787;28;20720;-86
2022/12/01 13:37:38;;;;;;;16.08;11.80;;;;;;;;;;5035029;28;20250;-86
2022/12/01 13:40:16;;;;;;;17.00;11.85;;;;;;;;;;5025918;28;20337;-85
2022/12/01 13:42:44;;;;;;;15.98;11.70;;;;;;;;;;5034925;28;20273;-86
2022/12/01 13:45:18;;;;;;;9.85;8.30;;;;;;;;;;5035107;28;20289;-85
2022/12/01 13:47:53;;;;;;;9.75;7.55;;;;;;;;;;5035038;28;20700;-85
2022/12/01 13:50:58;;;;;;;9.73;8.13;;;;;;;;;;5034665;28;20205;-87
2022/12/01 13:53:32;;;;;;;9.73;8.35;;;;;;;;;;5034220;28;20206;-87
2022/12/01 13:56:38;;;;;;;11.13;9.77;;;;;;;;;;5034329;28;20691;-85
2022/12/01 13:59:42;;;;;;;12.15;10.85;;;;;;;;;;5031412;28;20709;-86
2022/12/01 14:02:21;;;;;;;9.88;8.25;;;;;;;;;;5033477;28;20728;-85
2022/12/01 14:04:48;;;;;;;13.85;10.63;;;;;;;;;;5032457;28;20272;-84
2022/12/01 14:07:35;;;;;;;9.35;8.13;;;;;;;;;;5033858;28;20197;-85
2022/12/01 14:10:26;;;;;;;12.82;10.35;;;;;;;;;;5033946;28;20715;-85
2022/12/01 14:12:57;;;;;;;17.40;13.32;;;;;;;;;;5034515;28;20229;-86
2022/12/01 14:15:41;;;;;;;19.88;13.90;;;;;;;;;;5034576;28;20648;-86
2022/12/01 14:18:27;;;;;;;18.65;14.65;;;;;;;;;;5034718;28;20677;-85
2022/12/01 14:20:55;;;;;;;15.98;11.77;;;;;;;;;;5014709;28;20229;-86
2022/12/01 14:23:29;;;;;;;20.70;13.88;;;;;;;;;;5014625;28;20294;-86
2022/12/01 14:26:14;;;;;;;25.30;19.35;;;;;;;;;;5014608;28;20186;-85
2022/12/01 14:29:25;;;;;;;22.88;16.42;;;;;;;;;;5014960;28;20338;-85
2022/12/01 14:32:24;;;;;;;19.13;13.65;;;;;;;;;;5014643;28;20325;-86
2022/12/01 14:35:04;;;;;;;24.55;19.20;;;;;;;;;;5014177;28;20239;-87
2022/12/01 14:37:46;;;;;;;25.17;17.55;;;;;;;;;;5014244;28;20265;-88
2022/12/01 14:40:25;;;;;;;24.13;16.58;;;;;;;;;;5014180;28;20194;-87
2022/12/01 14:45:49;;;;;;;23.52;15.68;;;;;;;;;;5014270;28;20257;-86
2022/12/01 14:48:22;;;;;;;23.23;16.23;;;;;;;;;;5014985;28;20219;-85
2022/12/01 14:50:51;;;;;;;21.75;16.00;;;;;;;;;;5033939;28;20211;-84
2022/12/01 14:53:25;;;;;;;22.27;15.02;;;;;;;;;;5033892;28;20288;-87
2022/12/01 14:55:58;;;;;;;22.02;17.38;;;;;;;;;;5033549;28;20246;-85
2022/12/01 14:58:29;;;;;;;24.60;16.88;;;;;;;;;;5033827;28;20328;-85